createdAt,value
2022-11-30T00:00:03.703Z,105.07
2022-11-30T00:02:37.605Z,94.15
2022-11-30T00:05:11.652Z,106.15
2022-11-30T00:07:45.419Z,109.75
2022-11-30T00:10:20.277Z,105.82
2022-11-30T00:12:55.109Z,106.72
2022-11-30T00:15:28.709Z,102.88
2022-11-30T00:18:02.522Z,106.40
2022-11-30T00:20:36.162Z,95.63
2022-11-30T00:23:10.054Z,104.25
2022-11-30T00:25:44.943Z,110.38
2022-11-30T00:28:18.793Z,102.82
2022-11-30T00:30:58.644Z,104.20
2022-11-30T00:33:34.473Z,107.32
2022-11-30T00:36:10.273Z,101.57
2022-11-30T00:38:44.705Z,117.68
2022-11-30T00:41:20.363Z,104.65
2022-11-30T00:43:53.997Z,110.70
2022-11-30T00:46:27.680Z,104.85
2022-11-30T00:49:01.505Z,107.85
2022-11-30T00:51:35.004Z,111.78
2022-11-30T00:54:08.619Z,107.07
2022-11-30T00:56:43.455Z,108.22
2022-11-30T00:59:17.060Z,108.13
2022-11-30T01:01:50.599Z,107.47
2022-11-30T01:04:24.335Z,115.55
2022-11-30T01:06:57.799Z,114.30
2022-11-30T01:09:31.474Z,114.35
2022-11-30T01:12:07.140Z,105.80
2022-11-30T01:14:40.889Z,105.55
2022-11-30T01:17:14.354Z,113.70
2022-11-30T01:19:47.980Z,101.53
2022-11-30T01:22:21.456Z,102.90
2022-11-30T01:24:55.260Z,103.05
2022-11-30T03:47:19.011Z,126.05
2022-11-30T03:49:52.732Z,117.78
2022-11-30T03:52:26.244Z,120.15
2022-11-30T03:54:59.938Z,122.63
2022-11-30T03:57:33.471Z,118.47
2022-11-30T04:00:08.865Z,121.57
2022-11-30T04:02:45.019Z,120.85
2022-11-30T04:05:22.241Z,119.60
2022-11-30T04:07:55.796Z,118.88
2022-11-30T04:10:29.573Z,121.45
2022-11-30T04:13:03.002Z,119.22
2022-11-30T04:15:37.021Z,119.40
2022-11-30T04:18:11.954Z,121.30
2022-11-30T04:20:46.153Z,124.07
2022-11-30T04:23:20.514Z,123.32
2022-11-30T04:25:54.268Z,121.47
2022-11-30T04:28:27.811Z,129.32
2022-11-30T04:31:02.604Z,127.03
2022-11-30T04:33:37.684Z,125.35
2022-11-30T04:36:18.922Z,139.77
2022-11-30T04:38:52.485Z,132.68
2022-11-30T04:41:26.173Z,131.73
2022-11-30T04:43:59.801Z,141.95
2022-11-30T04:46:33.535Z,135.68
2022-11-30T04:49:08.434Z,132.18
2022-11-30T04:51:42.203Z,133.48
2022-11-30T04:54:15.686Z,133.23
2022-11-30T04:56:49.411Z,129.43
2022-11-30T04:59:23.032Z,126.97
2022-11-30T05:01:57.174Z,122.32
2022-11-30T05:04:32.068Z,139.23
2022-11-30T05:07:06.063Z,132.93
2022-11-30T05:09:39.552Z,130.25
2022-11-30T05:12:13.498Z,139.65
2022-11-30T05:14:47.241Z,141.25
2022-11-30T05:17:21.492Z,143.63
2022-11-30T05:19:56.583Z,135.43
2022-11-30T05:22:30.316Z,140.32
2022-11-30T05:25:04.364Z,130.25
2022-11-30T05:27:38.698Z,130.30
2022-11-30T05:30:13.825Z,145.65
2022-11-30T05:32:47.547Z,139.80
2022-11-30T05:35:22.517Z,135.30
2022-11-30T05:37:56.209Z,128.93
2022-11-30T05:40:32.310Z,140.73
2022-11-30T05:43:06.569Z,138.02
2022-11-30T05:45:40.150Z,139.55
2022-11-30T05:48:13.996Z,140.35
2022-11-30T05:50:48.787Z,142.57
2022-11-30T05:53:22.725Z,149.38
2022-11-30T05:55:56.275Z,140.50
2022-11-30T05:58:29.983Z,138.27
2022-11-30T06:01:04.159Z,144.10
2022-11-30T06:03:38.001Z,137.40
2022-11-30T06:06:13.076Z,137.38
2022-11-30T06:08:48.788Z,134.18
2022-11-30T06:11:22.642Z,123.32
2022-11-30T06:13:56.664Z,135.25
2022-11-30T06:16:30.144Z,134.20
2022-11-30T06:19:04.456Z,140.95
2022-11-30T06:21:39.624Z,140.50
2022-11-30T06:24:13.680Z,132.55
2022-11-30T06:26:47.227Z,139.98
2022-11-30T06:29:21.027Z,142.93
2022-11-30T06:31:54.514Z,132.57
2022-11-30T06:34:28.397Z,127.28
2022-11-30T06:37:03.378Z,130.13
2022-11-30T06:40:04.831Z,143.57
2022-11-30T06:42:30.981Z,132.40
2022-11-30T06:45:05.526Z,128.30
2022-11-30T06:47:39.108Z,127.18
2022-11-30T06:50:14.993Z,134.20
2022-11-30T06:52:49.824Z,119.13
2022-11-30T06:55:23.795Z,133.45
2022-11-30T06:57:57.201Z,127.22
2022-11-30T07:00:30.984Z,131.88
2022-11-30T07:03:05.485Z,130.55
2022-11-30T07:05:43.817Z,126.68
2022-11-30T07:08:19.037Z,117.20
2022-11-30T07:10:52.868Z,129.60
2022-11-30T07:13:26.599Z,124.28
2022-11-30T07:16:00.614Z,131.27
2022-11-30T07:18:34.895Z,130.80
2022-11-30T07:21:08.659Z,123.32
2022-11-30T07:24:01.204Z,124.20
2022-11-30T07:26:34.974Z,125.20
2022-11-30T07:29:08.545Z,123.65
2022-11-30T07:31:42.328Z,113.40
2022-11-30T07:34:15.794Z,126.57
2022-11-30T07:36:50.001Z,120.93
2022-11-30T07:39:24.926Z,110.05
2022-11-30T07:41:58.787Z,103.38
2022-11-30T07:44:32.818Z,117.90
2022-11-30T07:47:06.681Z,119.13
2022-11-30T07:49:40.281Z,107.05
2022-11-30T07:52:14.017Z,107.32
2022-11-30T07:54:48.981Z,105.53
2022-11-30T07:57:22.900Z,103.55
2022-11-30T07:59:56.359Z,109.15
2022-11-30T08:02:30.070Z,102.72
2022-11-30T08:05:03.544Z,95.47
2022-11-30T08:07:37.539Z,95.78
2022-11-30T08:10:12.989Z,93.88
2022-11-30T08:12:46.713Z,91.30
2022-11-30T08:15:21.484Z,96.47
2022-11-30T08:17:56.642Z,89.90
2022-11-30T08:20:30.189Z,90.55
2022-11-30T08:23:03.906Z,87.88
2022-11-30T08:25:39.434Z,92.68
2022-11-30T08:28:13.111Z,92.47
2022-11-30T08:30:46.751Z,86.03
2022-11-30T08:33:20.577Z,81.55
2022-11-30T08:35:54.017Z,85.18
2022-11-30T08:38:28.287Z,86.32
2022-11-30T08:41:03.242Z,84.10
2022-11-30T08:43:37.246Z,80.80
2022-11-30T08:46:42.604Z,87.10
2022-11-30T08:49:20.805Z,76.65
2022-11-30T08:54:51.381Z,84.03
2022-11-30T08:57:26.978Z,89.47
2022-11-30T09:00:00.830Z,79.70
2022-11-30T09:02:34.541Z,78.90
2022-11-30T09:05:08.739Z,75.50
2022-11-30T09:07:42.346Z,80.45
2022-11-30T09:10:16.276Z,76.07
2022-11-30T09:12:51.296Z,75.43
2022-11-30T09:15:25.088Z,80.82
2022-11-30T09:17:58.663Z,68.15
2022-11-30T09:20:32.410Z,71.60
2022-11-30T09:23:06.048Z,62.92
2022-11-30T09:25:39.716Z,75.75
2022-11-30T09:28:14.480Z,73.45
2022-11-30T09:30:48.387Z,72.60
2022-11-30T09:33:23.238Z,69.60
2022-11-30T09:35:57.787Z,65.93
2022-11-30T09:38:31.473Z,65.63
2022-11-30T09:41:08.382Z,67.65
2022-11-30T09:43:52.928Z,64.57
2022-11-30T09:46:34.672Z,64.07
2022-11-30T09:49:16.550Z,62.22
2022-11-30T09:51:52.439Z,67.32
2022-11-30T09:54:35.282Z,59.45
2022-11-30T09:57:25.142Z,65.35
2022-11-30T10:00:01.589Z,62.58
2022-11-30T10:02:39.589Z,58.72
2022-11-30T10:05:14.760Z,57.10
2022-11-30T10:08:07.941Z,57.88
2022-11-30T10:10:45.506Z,58.15
2022-11-30T10:13:29.993Z,59.70
2022-11-30T10:16:20.698Z,60.75
2022-11-30T10:19:02.495Z,59.67
2022-11-30T10:21:49.291Z,55.75
2022-11-30T10:24:37.894Z,56.33
2022-11-30T10:27:17.721Z,52.90
2022-11-30T10:29:51.965Z,59.90
2022-11-30T10:32:33.292Z,54.58
2022-11-30T10:35:20.867Z,61.95
2022-11-30T10:37:54.813Z,57.67
2022-11-30T10:40:38.426Z,58.88
2022-11-30T10:43:20.341Z,61.75
2022-11-30T10:45:54.328Z,54.88
2022-11-30T10:48:39.588Z,58.22
2022-11-30T10:51:13.721Z,58.38
2022-11-30T10:53:47.470Z,60.60
2022-11-30T10:56:21.240Z,55.55
2022-11-30T10:59:01.132Z,59.70
2022-11-30T11:01:37.133Z,56.50
2022-11-30T11:04:17.690Z,56.30
2022-11-30T11:06:55.139Z,55.40
2022-11-30T11:09:35.790Z,57.10
2022-11-30T11:12:17.475Z,53.58
2022-11-30T11:15:09.823Z,63.25
2022-11-30T11:17:43.764Z,60.80
2022-11-30T11:20:35.393Z,58.28
2022-11-30T11:23:22.577Z,63.72
2022-11-30T11:25:57.555Z,56.35
2022-11-30T11:28:32.047Z,64.82
2022-11-30T11:31:19.151Z,49.97
2022-11-30T11:33:54.839Z,59.67
2022-11-30T11:36:31.651Z,59.95
2022-11-30T11:39:26.852Z,55.05
2022-11-30T11:42:01.488Z,54.17
2022-11-30T11:44:35.525Z,54.65
2022-11-30T11:47:21.814Z,54.83
2022-11-30T11:50:50.362Z,53.25
2022-11-30T11:53:25.712Z,59.53
2022-11-30T11:56:04.712Z,50.47
2022-11-30T11:58:45.094Z,49.78
2022-11-30T12:01:41.537Z,43.20
2022-11-30T12:04:32.931Z,46.45
2022-11-30T12:07:18.084Z,53.67
2022-11-30T12:10:00.894Z,47.25
2022-11-30T12:12:34.790Z,50.47
2022-11-30T12:15:12.626Z,55.10
2022-11-30T12:17:57.198Z,51.42
2022-11-30T12:20:49.140Z,57.95
2022-11-30T12:23:45.325Z,52.78
2022-11-30T12:26:29.069Z,51.67
2022-11-30T12:29:24.152Z,56.45
2022-11-30T12:32:24.405Z,57.72
2022-11-30T12:35:13.119Z,54.70
2022-11-30T12:37:58.149Z,54.17
2022-11-30T12:40:42.149Z,51.97
2022-11-30T12:43:28.641Z,51.53
2022-11-30T12:46:13.251Z,60.67
2022-11-30T12:49:08.799Z,61.88
2022-11-30T12:51:49.669Z,64.18
2022-11-30T12:54:31.978Z,59.25
2022-11-30T12:57:14.061Z,57.38
2022-11-30T13:00:02.854Z,59.30
2022-11-30T13:05:24.494Z,62.28
2022-11-30T13:08:06.796Z,67.97
2022-11-30T13:10:45.545Z,69.53
2022-11-30T13:13:25.427Z,61.50
2022-11-30T13:16:03.155Z,63.35
2022-11-30T13:18:37.521Z,71.07
2022-11-30T13:21:21.401Z,67.78
2022-11-30T13:24:03.060Z,72.20
2022-11-30T13:26:42.026Z,70.68
2022-11-30T13:29:28.624Z,74.28
2022-11-30T13:32:27.493Z,79.13
2022-11-30T13:35:36.704Z,76.38
2022-11-30T13:38:38.052Z,86.50
2022-11-30T13:41:12.193Z,76.55
2022-11-30T13:43:48.470Z,78.80
2022-11-30T13:46:24.026Z,83.72
2022-11-30T13:49:19.803Z,82.82
2022-11-30T13:52:20.851Z,92.18
2022-11-30T13:54:50.318Z,83.47
2022-11-30T13:58:04.372Z,90.03
2022-11-30T14:01:01.047Z,88.32
2022-11-30T14:03:36.152Z,94.03
2022-11-30T14:06:43.127Z,94.30
2022-11-30T14:09:38.769Z,99.90
2022-11-30T14:12:47.249Z,93.78
2022-11-30T14:18:49.116Z,109.05
2022-11-30T14:21:27.285Z,110.25
2022-11-30T14:24:04.893Z,121.15
2022-11-30T14:26:44.925Z,114.15
2022-11-30T14:29:21.961Z,103.13
2022-11-30T14:31:58.258Z,111.38
2022-11-30T14:34:38.398Z,112.22
2022-11-30T14:37:17.172Z,106.85
2022-11-30T14:39:53.620Z,113.70
2022-11-30T14:42:30.848Z,123.00
2022-11-30T14:45:05.079Z,107.05
2022-11-30T14:47:41.305Z,116.80
2022-11-30T14:50:23.914Z,107.72
2022-11-30T14:53:07.468Z,114.45
2022-11-30T14:55:46.489Z,121.05
2022-11-30T14:58:32.517Z,112.38
2022-11-30T15:01:16.951Z,111.70
2022-11-30T15:03:54.398Z,110.55
2022-11-30T15:06:32.118Z,120.22
2022-11-30T15:09:14.057Z,114.47
2022-11-30T15:11:49.738Z,112.35
2022-11-30T15:14:25.442Z,111.78
2022-11-30T15:16:58.901Z,121.03
2022-11-30T15:19:35.041Z,121.20
2022-11-30T15:22:22.118Z,108.72
2022-11-30T15:24:56.034Z,111.43
2022-11-30T15:27:29.737Z,116.68
2022-11-30T15:30:05.726Z,114.65
2022-11-30T15:32:39.246Z,122.40
2022-11-30T15:35:19.758Z,117.18
2022-11-30T15:37:55.650Z,113.00
2022-11-30T15:40:33.639Z,120.28
2022-11-30T15:43:13.469Z,111.35
2022-11-30T15:45:55.640Z,121.47
2022-11-30T15:48:32.102Z,128.05
2022-11-30T15:51:06.489Z,118.18
2022-11-30T15:53:50.231Z,130.13
2022-11-30T15:56:27.165Z,125.90
2022-11-30T15:59:03.334Z,118.80
2022-11-30T16:02:04.914Z,117.53
2022-11-30T16:05:21.081Z,124.20
2022-11-30T16:07:57.209Z,129.73
2022-11-30T16:10:35.783Z,125.30
2022-11-30T16:13:14.890Z,121.25
2022-11-30T16:18:26.180Z,111.22
2022-11-30T16:21:01.817Z,98.35
2022-11-30T16:23:36.182Z,106.30
2022-11-30T16:26:23.148Z,104.97
2022-11-30T16:29:06.454Z,107.60
2022-11-30T16:31:39.929Z,119.43
2022-11-30T16:34:15.109Z,101.90
2022-11-30T16:36:48.769Z,110.82
2022-11-30T16:39:22.559Z,101.05
2022-11-30T16:41:56.122Z,108.30
2022-11-30T16:44:30.035Z,105.35
2022-11-30T16:47:03.503Z,103.93
2022-11-30T16:49:38.553Z,104.13
2022-11-30T16:52:17.618Z,105.13
2022-11-30T16:54:51.508Z,112.88
2022-11-30T16:57:25.068Z,104.07
2022-11-30T16:59:58.823Z,104.78
2022-11-30T17:02:33.752Z,102.38
2022-11-30T17:05:11.647Z,105.05
2022-11-30T17:07:45.421Z,115.35
2022-11-30T17:10:20.340Z,113.38
2022-11-30T17:12:54.162Z,127.05
2022-11-30T17:15:27.928Z,110.45
2022-11-30T17:18:01.472Z,107.97
2022-11-30T17:20:38.082Z,115.55
2022-11-30T17:23:11.647Z,125.50
2022-11-30T17:25:47.134Z,130.45
2022-11-30T17:28:20.797Z,127.47
2022-11-30T17:30:54.642Z,132.82
2022-11-30T17:33:32.068Z,131.43
2022-11-30T17:36:09.496Z,134.15
2022-11-30T17:38:43.993Z,126.18
2022-11-30T17:41:20.540Z,135.82
2022-11-30T17:43:54.231Z,135.55
2022-11-30T17:46:28.025Z,141.48
2022-11-30T17:49:01.500Z,144.02
2022-11-30T17:51:36.907Z,155.02
2022-11-30T17:54:12.069Z,160.80
2022-11-30T17:56:46.114Z,150.00
2022-11-30T17:59:19.810Z,145.07
2022-11-30T18:01:53.897Z,165.98
2022-11-30T18:04:27.715Z,156.15
2022-11-30T18:07:02.877Z,151.85
2022-11-30T18:09:42.225Z,161.90
2022-11-30T18:12:16.264Z,156.07
2022-11-30T18:14:50.172Z,158.93
2022-11-30T18:17:24.208Z,162.52
2022-11-30T18:19:57.628Z,160.43
2022-11-30T18:22:32.876Z,162.85
2022-11-30T18:25:07.375Z,152.50
2022-11-30T18:27:41.428Z,153.57
2022-11-30T18:30:15.490Z,148.65
2022-11-30T18:32:49.362Z,141.55
2022-11-30T18:35:23.051Z,148.63
2022-11-30T18:37:58.706Z,137.52
2022-11-30T18:40:32.260Z,158.05
2022-11-30T18:43:06.526Z,138.32
2022-11-30T18:45:40.194Z,142.38
2022-11-30T18:48:14.129Z,133.38
2022-11-30T18:50:47.609Z,132.65
2022-11-30T18:53:22.725Z,138.10
2022-11-30T18:55:56.467Z,133.82
2022-11-30T18:58:30.360Z,142.98
2022-11-30T19:01:09.091Z,130.82
2022-11-30T19:06:16.474Z,126.70
2022-11-30T19:08:52.080Z,120.88
2022-11-30T19:11:26.306Z,123.85
2022-11-30T19:14:00.637Z,126.60
2022-11-30T19:16:35.943Z,114.68
2022-11-30T19:19:13.801Z,125.63
2022-11-30T19:21:47.748Z,124.15
2022-11-30T19:24:22.954Z,117.80
2022-11-30T19:26:56.569Z,115.32
2022-11-30T19:29:30.495Z,117.25
2022-11-30T19:32:04.336Z,118.90
2022-11-30T19:34:37.988Z,115.18
2022-11-30T19:37:11.499Z,118.75
2022-11-30T19:39:47.391Z,118.57
2022-11-30T19:42:20.892Z,112.80
2022-11-30T19:44:54.610Z,115.35
2022-11-30T19:47:28.245Z,112.05
2022-11-30T19:50:01.959Z,113.70
2022-11-30T19:52:35.822Z,116.00
2022-11-30T19:55:11.590Z,116.93
2022-11-30T19:57:45.072Z,116.93
2022-11-30T20:00:19.669Z,117.57
2022-11-30T20:02:53.262Z,123.97
2022-11-30T20:05:27.207Z,119.40
2022-11-30T20:08:00.752Z,115.72
2022-11-30T20:10:36.063Z,113.18
2022-11-30T20:13:09.554Z,118.15
2022-11-30T20:15:43.311Z,112.28
2022-11-30T20:18:17.123Z,113.45
2022-11-30T20:20:50.884Z,119.57
2022-11-30T20:23:24.371Z,115.43
2022-11-30T20:25:59.495Z,118.55
2022-11-30T20:28:33.125Z,113.43
2022-11-30T20:31:07.886Z,117.18
2022-11-30T20:33:42.200Z,107.38
2022-11-30T20:36:17.176Z,112.18
2022-11-30T20:38:50.661Z,111.90
2022-11-30T20:41:26.191Z,111.93
2022-11-30T20:43:59.852Z,115.03
2022-11-30T20:46:35.650Z,110.97
2022-11-30T20:49:15.918Z,114.25
2022-11-30T20:51:49.669Z,117.43
2022-11-30T20:54:23.386Z,116.75
2022-11-30T20:56:59.216Z,111.70
2022-11-30T20:59:33.372Z,120.53
2022-11-30T21:02:07.170Z,114.13
2022-11-30T21:04:40.673Z,105.75
2022-11-30T21:07:14.411Z,112.93
2022-11-30T21:09:47.908Z,109.80
2022-11-30T21:12:23.128Z,111.38
2022-11-30T21:14:56.657Z,115.55
2022-11-30T21:17:30.637Z,115.25
2022-11-30T21:20:04.904Z,113.63
2022-11-30T21:22:38.667Z,111.38
2022-11-30T21:25:12.530Z,113.47
2022-11-30T21:27:52.108Z,114.35
2022-11-30T21:30:25.675Z,111.20
2022-11-30T21:32:59.470Z,113.30
2022-11-30T21:35:33.152Z,111.80
2022-11-30T21:38:06.846Z,112.20
2022-11-30T21:40:40.371Z,111.68
2022-11-30T21:43:15.395Z,111.25
2022-11-30T21:45:57.674Z,115.43
2022-11-30T21:48:33.013Z,102.97
2022-11-30T21:51:08.537Z,108.55
2022-11-30T21:53:45.647Z,108.25
2022-11-30T21:56:22.303Z,106.30
2022-11-30T21:58:57.856Z,121.53
2022-11-30T22:01:34.448Z,109.70
2022-11-30T22:04:10.713Z,105.47
2022-11-30T22:06:44.476Z,111.07
2022-11-30T22:09:18.840Z,113.78
2022-11-30T22:11:52.255Z,121.47
2022-11-30T22:14:27.422Z,117.32
2022-11-30T22:17:01.265Z,109.40
2022-11-30T22:19:35.151Z,110.25
2022-11-30T22:22:08.705Z,107.68
2022-11-30T22:24:42.472Z,130.27
2022-11-30T22:27:15.996Z,111.60
2022-11-30T22:29:51.405Z,111.47
2022-11-30T22:32:24.866Z,100.45
2022-11-30T22:34:58.540Z,107.88
2022-11-30T22:37:32.191Z,116.47
2022-11-30T22:40:07.304Z,109.90
2022-11-30T22:42:40.975Z,113.57
2022-11-30T22:45:16.117Z,109.72
2022-11-30T22:47:49.638Z,104.75
2022-11-30T22:50:23.563Z,111.70
2022-11-30T22:53:04.380Z,108.82
2022-11-30T22:55:38.338Z,108.38
2022-11-30T22:58:11.997Z,103.65
2022-11-30T23:00:47.157Z,107.68
2022-11-30T23:03:20.853Z,106.30
2022-11-30T23:05:54.869Z,100.78
2022-11-30T23:08:29.368Z,106.97
2022-11-30T23:11:05.480Z,105.32
2022-11-30T23:13:40.491Z,104.22
2022-11-30T23:16:16.691Z,100.53
2022-11-30T23:18:53.970Z,102.38
2022-11-30T23:21:30.300Z,99.78
2022-11-30T23:24:07.111Z,99.25
2022-11-30T23:26:41.482Z,100.43
2022-11-30T23:29:16.626Z,102.00
2022-11-30T23:31:51.701Z,99.47
2022-11-30T23:34:25.198Z,102.03
2022-11-30T23:36:59.085Z,101.75
2022-11-30T23:39:32.665Z,102.82
2022-11-30T23:42:06.541Z,102.65
2022-11-30T23:44:40.140Z,106.05
2022-11-30T23:47:18.264Z,107.32
2022-11-30T23:49:52.069Z,103.47
2022-11-30T23:52:25.770Z,95.45
2022-11-30T23:54:59.476Z,100.38
2022-11-30T23:57:33.405Z,97.40
